Cone, Michigan
Current Conditions -  °F | °C
As of 1:53 PM on Saturday 25 Oct 2014 (Local Time) from KARB Reporting Station
Few Clouds Few Clouds  
Wind Chill: 65°   Ceiling: Unl
Heat Index: 65°   Visibility: 10mi
Dew Point: 50°   Wind: 24mph
Humidity: 58%   Direction: 270°W
Pressure: 29.79"   Gusts: 28mph
Location:  42.0828°N, 83.683°W
Report Text: KARB 251753Z 27021G24KT 10SM FEW022 18/10 A2979 RMK AO2 SLP089 60000 T01830100 10183 20083 58011
Loading
Personal Weather Stations






























Interactive Weather Map
Tropical Storm Tracking
New forecast layout! Learn more

10-Day Weather Forecast

Advertisements
Track Severe Weather on mobile